Terminal Aerodrome Forecast
Issued by NWS

Home | Current Version | Previous Version | Text Only | Print | Product List | Glossary On
Versions: 1 2 3 4 5 6 7 8 9 10 11 12 13 14 15 16 17 18 19 20 21 22 23 24 25 26 27 28 29 30
135
FTUS43 KFGF 261739
TAFTVF
TAF
KTVF 261739Z 2618/2718 33016KT P6SM SKC
     FM270200 21006KT P6SM FEW080 FEW200
     FM270600 24009KT P6SM FEW070 SCT110
     FM271000 33015KT P6SM FEW030 FEW250
     FM271500 34017G26KT P6SM BKN025=

USA.gov is the U.S. government's official web portal to all federal, state and local government web resources and services.